createdAt,value
2019-01-19T00:26:07.434Z,7.00
2019-01-19T00:30:30.559Z,6.60
2019-01-19T09:16:49.019Z,12.97
2019-01-19T09:39:36.901Z,13.57
2019-01-19T09:47:12.172Z,13.63
2019-01-19T09:50:32.883Z,13.93
2019-01-19T09:53:53.126Z,14.30
2019-01-19T09:57:24.485Z,14.13
2019-01-19T10:00:45.864Z,14.33
2019-01-19T10:04:05.949Z,15.47
2019-01-19T10:07:27.720Z,15.13
2019-01-19T10:10:46.838Z,14.63
2019-01-19T10:14:06.885Z,13.60
2019-01-19T10:17:33.010Z,15.30
2019-01-19T10:20:41.802Z,14.07
2019-01-19T10:23:50.654Z,15.10
2019-01-19T10:26:59.618Z,14.53
2019-01-19T10:30:20.535Z,14.33
2019-01-19T10:33:29.045Z,15.07
2019-01-19T10:36:37.535Z,14.97
2019-01-19T10:40:08.942Z,15.00
2019-01-19T10:43:17.546Z,14.87
2019-01-19T10:46:26.007Z,15.23
2019-01-19T10:49:58.579Z,14.27
2019-01-19T10:53:19.233Z,13.50
2019-01-19T10:56:39.955Z,14.43
2019-01-19T11:11:58.025Z,14.90
2019-01-19T11:15:19.026Z,14.90
2019-01-19T11:18:45.154Z,13.67
2019-01-19T11:34:28.970Z,13.07
2019-01-19T13:30:23.207Z,8.53
2019-01-19T14:55:19.347Z,10.00
2019-01-19T14:59:11.616Z,11.67
2019-01-19T15:03:25.816Z,10.90
2019-01-19T15:07:34.776Z,11.40
2019-01-19T15:26:01.215Z,10.27
2019-01-19T15:30:31.067Z,11.20
2019-01-19T15:34:38.757Z,10.40
2019-01-19T15:38:36.229Z,17.27
2019-01-19T15:42:45.017Z,12.10
2019-01-19T15:47:05.615Z,11.80
2019-01-19T15:51:10.271Z,10.60
2019-01-19T16:17:05.986Z,13.03
2019-01-19T16:25:33.537Z,12.43
2019-01-19T16:30:00.350Z,11.60
2019-01-19T17:15:04.535Z,13.53
2019-01-19T17:19:42.581Z,14.47
2019-01-19T18:03:46.852Z,13.83
2019-01-19T18:16:08.339Z,14.67
2019-01-19T18:19:49.462Z,14.17
2019-01-19T18:23:48.726Z,14.43
2019-01-19T19:08:06.866Z,16.43
2019-01-19T19:11:58.031Z,17.00
2019-01-19T19:15:45.336Z,17.67
2019-01-19T19:19:51.201Z,17.53
2019-01-19T19:23:40.215Z,15.80
2019-01-19T22:28:55.002Z,16.03
